createdAt,value
2022-12-09T00:01:11.267Z,48.03
2022-12-09T00:03:38.073Z,47.93
2022-12-09T00:06:09.223Z,48.45
2022-12-09T00:08:36.359Z,48.32
2022-12-09T00:11:03.093Z,48.23
2022-12-09T00:13:30.107Z,48.18
2022-12-09T00:15:56.932Z,48.42
2022-12-09T00:18:23.691Z,48.49
2022-12-09T00:20:50.265Z,48.42
2022-12-09T00:23:16.789Z,48.29
2022-12-09T00:25:43.334Z,48.01
2022-12-09T00:28:09.947Z,48.35
2022-12-09T00:30:36.494Z,48.56
2022-12-09T00:33:03.219Z,48.32
2022-12-09T00:35:29.898Z,48.24
2022-12-09T00:37:56.659Z,48.45
2022-12-09T00:40:23.439Z,47.99
2022-12-09T00:42:50.090Z,48.25
2022-12-09T00:45:16.672Z,48.36
2022-12-09T00:47:43.246Z,48.42
2022-12-09T00:50:10.600Z,48.25
2022-12-09T00:52:37.319Z,48.32
2022-12-09T00:55:04.201Z,48.30
2022-12-09T00:57:31.143Z,48.30
2022-12-09T00:59:57.720Z,48.30
2022-12-09T01:02:24.537Z,48.08
2022-12-09T01:04:52.352Z,48.42
2022-12-09T01:07:19.361Z,48.23
2022-12-09T01:09:46.083Z,48.18
2022-12-09T01:12:12.826Z,48.26
2022-12-09T01:14:39.452Z,48.45
2022-12-09T01:17:06.309Z,48.33
2022-12-09T01:19:34.318Z,48.35
2022-12-09T01:22:01.252Z,48.46
2022-12-09T01:24:28.110Z,48.47
2022-12-09T01:26:54.758Z,48.62
2022-12-09T01:29:21.314Z,48.15
2022-12-09T01:31:48.231Z,48.45
2022-12-09T01:34:15.054Z,48.31
2022-12-09T01:36:41.627Z,48.37
2022-12-09T01:39:08.322Z,48.54
2022-12-09T01:41:35.209Z,48.41
2022-12-09T01:44:24.384Z,48.07
2022-12-09T01:46:55.877Z,48.14
2022-12-09T01:49:26.549Z,48.08
2022-12-09T01:52:07.565Z,48.34
2022-12-09T01:54:34.617Z,48.29
2022-12-09T01:57:01.911Z,48.09
2022-12-09T01:59:28.636Z,48.21
2022-12-09T02:01:59.236Z,48.21
2022-12-09T02:04:27.595Z,48.49
2022-12-09T02:06:54.295Z,48.19
2022-12-09T02:09:21.003Z,48.23
2022-12-09T02:12:17.700Z,48.11
2022-12-09T02:14:53.294Z,48.40
2022-12-09T02:17:28.011Z,48.40
2022-12-09T02:19:55.972Z,48.35
2022-12-09T02:22:24.968Z,48.41
2022-12-09T02:25:11.999Z,48.41
2022-12-09T02:27:49.903Z,48.28
2022-12-09T02:30:21.281Z,48.22
2022-12-09T02:33:05.954Z,48.19
2022-12-09T02:35:41.647Z,48.28
2022-12-09T02:38:21.523Z,48.56
2022-12-09T02:40:55.768Z,48.42
2022-12-09T02:43:25.476Z,48.21
2022-12-09T02:45:53.548Z,48.48
2022-12-09T02:48:23.640Z,48.34
2022-12-09T02:50:51.762Z,47.32
2022-12-09T02:53:18.729Z,46.81
2022-12-09T02:55:48.036Z,47.11
2022-12-09T02:58:14.617Z,46.76
2022-12-09T03:00:41.927Z,46.89
2022-12-09T03:03:14.965Z,46.85
2022-12-09T03:06:09.037Z,46.67
2022-12-09T03:08:38.063Z,46.80
2022-12-09T03:11:08.400Z,46.48
2022-12-09T03:13:51.225Z,46.48
2022-12-09T03:16:26.886Z,46.48
2022-12-09T03:19:10.195Z,46.48
2022-12-09T03:21:39.587Z,46.58
2022-12-09T03:24:09.041Z,46.43
2022-12-09T03:26:37.499Z,46.25
2022-12-09T03:29:11.074Z,46.49
2022-12-09T03:31:38.273Z,46.43
2022-12-09T03:34:06.540Z,46.31
2022-12-09T03:36:39.086Z,46.57
2022-12-09T03:39:12.250Z,46.44
2022-12-09T03:41:44.464Z,46.48
2022-12-09T03:44:20.114Z,46.37
2022-12-09T03:46:46.982Z,46.49
2022-12-09T03:49:14.168Z,46.62
2022-12-09T03:51:45.556Z,46.40
2022-12-09T03:54:24.875Z,46.36
2022-12-09T03:56:57.016Z,46.34
2022-12-09T03:59:25.710Z,46.34
2022-12-09T04:01:52.923Z,46.36
2022-12-09T04:04:19.657Z,46.40
2022-12-09T04:06:47.098Z,46.20
2022-12-09T04:09:13.994Z,46.46
2022-12-09T04:11:40.683Z,46.33
2022-12-09T04:14:11.947Z,46.34
2022-12-09T04:16:41.936Z,46.45
2022-12-09T04:19:08.508Z,46.52
2022-12-09T04:21:35.024Z,46.13
2022-12-09T04:24:01.571Z,46.36
2022-12-09T04:26:28.154Z,46.32
2022-12-09T04:28:54.918Z,46.21
2022-12-09T04:31:22.048Z,46.11
2022-12-09T04:33:48.918Z,46.07
2022-12-09T04:36:18.113Z,46.06
2022-12-09T04:38:45.511Z,46.15
2022-12-09T04:41:14.784Z,46.18
2022-12-09T04:43:41.688Z,46.30
2022-12-09T04:46:11.910Z,46.44
2022-12-09T04:48:38.727Z,46.32
2022-12-09T04:51:07.869Z,46.03
2022-12-09T04:53:34.424Z,46.14
2022-12-09T04:56:11.071Z,46.11
2022-12-09T04:58:37.955Z,46.01
2022-12-09T05:01:09.272Z,46.14
2022-12-09T05:03:36.889Z,46.11
2022-12-09T05:06:05.844Z,45.96
2022-12-09T05:08:33.538Z,45.94
2022-12-09T05:11:00.830Z,46.02
2022-12-09T05:13:28.018Z,46.06
2022-12-09T05:15:59.812Z,45.84
2022-12-09T05:18:27.445Z,45.78
2022-12-09T05:20:54.458Z,45.73
2022-12-09T05:23:21.445Z,45.70
2022-12-09T05:25:48.136Z,45.64
2022-12-09T05:28:15.006Z,45.90
2022-12-09T05:30:41.721Z,45.47
2022-12-09T05:33:08.793Z,45.69
2022-12-09T05:35:43.668Z,45.54
2022-12-09T05:38:17.381Z,45.72
2022-12-09T05:40:44.329Z,45.52
2022-12-09T05:43:10.993Z,45.65
2022-12-09T05:45:37.843Z,45.56
2022-12-09T05:48:04.546Z,45.50
2022-12-09T05:50:31.295Z,45.36
2022-12-09T05:52:58.114Z,45.53
2022-12-09T05:55:24.841Z,45.53
2022-12-09T05:57:51.680Z,45.52
2022-12-09T06:00:18.820Z,45.48
2022-12-09T06:02:45.550Z,45.79
2022-12-09T06:05:12.332Z,45.67
2022-12-09T06:07:39.594Z,45.54
2022-12-09T06:10:07.488Z,45.27
2022-12-09T06:12:35.078Z,45.32
2022-12-09T06:15:02.104Z,45.26
2022-12-09T06:17:29.214Z,45.24
2022-12-09T06:19:55.970Z,45.34
2022-12-09T06:22:22.631Z,45.37
2022-12-09T06:24:52.764Z,45.47
2022-12-09T06:27:23.437Z,45.51
2022-12-09T06:29:50.120Z,45.47
2022-12-09T06:32:17.240Z,45.65
2022-12-09T06:34:44.074Z,45.33
2022-12-09T06:37:10.937Z,45.22
2022-12-09T06:39:37.547Z,45.00
2022-12-09T06:42:04.388Z,45.01
2022-12-09T06:44:31.359Z,44.97
2022-12-09T06:46:58.336Z,45.00
2022-12-09T06:49:25.062Z,45.10
2022-12-09T06:51:52.070Z,45.21
2022-12-09T06:54:18.798Z,45.14
2022-12-09T06:56:45.411Z,45.28
2022-12-09T06:59:12.473Z,45.37
2022-12-09T07:01:39.819Z,45.07
2022-12-09T07:04:07.340Z,44.84
2022-12-09T07:06:37.419Z,44.98
2022-12-09T07:09:14.792Z,45.20
2022-12-09T07:11:48.805Z,44.96
2022-12-09T07:14:16.904Z,45.03
2022-12-09T07:16:43.997Z,45.07
2022-12-09T07:19:20.387Z,45.19
2022-12-09T07:21:48.632Z,45.14
2022-12-09T07:24:16.110Z,45.01
2022-12-09T07:26:42.753Z,44.74
2022-12-09T07:29:09.888Z,44.60
2022-12-09T07:31:36.884Z,44.25
2022-12-09T07:34:04.848Z,44.10
2022-12-09T07:36:33.182Z,43.87
2022-12-09T07:39:20.009Z,43.51
2022-12-09T07:41:48.443Z,43.45
2022-12-09T07:44:15.128Z,43.40
2022-12-09T07:46:41.995Z,43.39
2022-12-09T07:49:11.070Z,43.24
2022-12-09T07:51:37.749Z,43.28
2022-12-09T07:54:04.801Z,43.26
2022-12-09T07:56:31.626Z,43.58
2022-12-09T07:58:58.772Z,43.21
2022-12-09T08:01:27.647Z,43.17
2022-12-09T08:03:55.649Z,43.16
2022-12-09T08:06:25.951Z,43.35
2022-12-09T08:08:53.185Z,43.70
2022-12-09T08:11:52.619Z,43.85
2022-12-09T08:14:19.884Z,43.78
2022-12-09T08:16:46.976Z,43.85
2022-12-09T08:19:14.063Z,43.83
2022-12-09T08:21:41.720Z,43.65
2022-12-09T08:24:11.054Z,43.69
2022-12-09T08:26:39.385Z,43.81
2022-12-09T08:29:11.119Z,43.63
2022-12-09T08:31:41.717Z,43.47
2022-12-09T08:34:09.131Z,43.62
2022-12-09T08:36:36.970Z,43.71
2022-12-09T08:39:05.083Z,43.44
2022-12-09T08:41:37.835Z,43.69
2022-12-09T08:44:06.552Z,43.43
2022-12-09T08:46:34.711Z,43.38
2022-12-09T08:49:02.125Z,43.65
2022-12-09T08:51:30.453Z,43.53
2022-12-09T08:53:57.974Z,43.67
2022-12-09T08:56:25.199Z,43.30
2022-12-09T08:58:52.537Z,43.29
2022-12-09T09:01:25.017Z,43.22
2022-12-09T09:03:52.274Z,43.28
2022-12-09T09:06:20.082Z,43.21
2022-12-09T09:08:47.614Z,43.09
2022-12-09T09:11:17.842Z,43.02
2022-12-09T09:13:46.049Z,42.87
2022-12-09T09:16:15.714Z,42.67
2022-12-09T09:18:42.919Z,42.69
2022-12-09T09:21:11.092Z,42.60
2022-12-09T09:23:38.157Z,42.81
2022-12-09T09:26:05.592Z,42.56
2022-12-09T09:28:32.686Z,42.58
2022-12-09T09:31:00.783Z,42.57
2022-12-09T09:33:28.167Z,42.52
2022-12-09T09:35:57.165Z,42.64
2022-12-09T09:38:24.454Z,42.54
2022-12-09T09:40:51.968Z,42.52
2022-12-09T09:43:22.153Z,42.55
2022-12-09T09:45:49.182Z,42.37
2022-12-09T09:48:20.016Z,42.52
2022-12-09T09:50:53.762Z,42.52
2022-12-09T09:53:26.807Z,42.48
2022-12-09T09:56:02.114Z,42.37
2022-12-09T09:58:39.094Z,42.37
2022-12-09T10:01:12.184Z,42.58
2022-12-09T10:04:02.084Z,42.63
2022-12-09T10:06:41.647Z,43.22
2022-12-09T10:09:35.172Z,43.42
2022-12-09T10:12:32.601Z,43.37
2022-12-09T10:15:27.695Z,42.97
2022-12-09T10:18:17.489Z,42.81
2022-12-09T10:20:44.355Z,42.60
2022-12-09T10:23:16.308Z,42.72
2022-12-09T10:26:04.119Z,42.62
2022-12-09T10:28:35.179Z,42.58
2022-12-09T10:31:03.289Z,42.65
2022-12-09T10:33:35.530Z,42.71
2022-12-09T10:36:03.572Z,42.46
2022-12-09T10:38:31.656Z,42.48
2022-12-09T10:41:06.526Z,42.20
2022-12-09T10:43:38.682Z,42.23
2022-12-09T10:46:17.811Z,42.31
2022-12-09T10:48:49.033Z,42.01
2022-12-09T10:51:20.571Z,42.25
2022-12-09T10:54:00.942Z,42.35
2022-12-09T10:56:32.469Z,42.47
2022-12-09T10:59:15.939Z,42.61
2022-12-09T11:01:56.591Z,42.69
2022-12-09T11:04:27.338Z,42.69
2022-12-09T11:06:59.881Z,42.81
2022-12-09T11:09:30.203Z,42.77
2022-12-09T11:11:57.704Z,42.79
2022-12-09T11:14:30.527Z,42.53
2022-12-09T11:16:59.785Z,42.65
2022-12-09T11:19:38.863Z,42.68
2022-12-09T11:22:33.485Z,42.63
2022-12-09T11:25:12.819Z,42.54
2022-12-09T11:27:41.363Z,42.76
2022-12-09T11:30:27.239Z,42.77
2022-12-09T11:33:07.912Z,42.87
2022-12-09T11:35:44.055Z,42.68
2022-12-09T11:38:45.385Z,42.80
2022-12-09T11:41:11.940Z,42.70
2022-12-09T11:43:56.552Z,42.78
2022-12-09T11:46:31.490Z,42.76
2022-12-09T11:49:01.836Z,42.88
2022-12-09T11:51:34.704Z,42.77
2022-12-09T11:54:10.341Z,43.04
2022-12-09T11:56:37.143Z,43.07
2022-12-09T11:59:09.552Z,42.92
2022-12-09T12:01:50.384Z,43.15
2022-12-09T12:04:23.023Z,43.26
2022-12-09T12:06:56.600Z,43.03
2022-12-09T12:09:32.618Z,43.08
2022-12-09T12:12:14.322Z,43.29
2022-12-09T12:14:43.031Z,43.33
2022-12-09T12:17:22.377Z,43.14
2022-12-09T12:19:51.320Z,43.22
2022-12-09T12:22:48.000Z,42.96
2022-12-09T12:25:46.790Z,43.00
2022-12-09T12:28:33.564Z,43.06
2022-12-09T12:31:26.236Z,43.68
2022-12-09T12:34:24.736Z,43.33
2022-12-09T12:36:57.038Z,43.70
2022-12-09T12:39:50.840Z,43.76
2022-12-09T12:42:35.367Z,43.56
2022-12-09T12:45:36.950Z,43.72
2022-12-09T12:48:14.545Z,43.58
2022-12-09T12:50:49.859Z,43.51
2022-12-09T12:53:34.291Z,43.41
2022-12-09T12:56:21.426Z,43.56
2022-12-09T12:59:17.176Z,43.53
2022-12-09T13:01:53.228Z,43.39
2022-12-09T13:04:24.364Z,43.44
2022-12-09T13:07:06.304Z,43.40
2022-12-09T13:09:38.939Z,43.34
2022-12-09T13:12:11.920Z,42.97
2022-12-09T13:15:00.278Z,43.21
2022-12-09T13:17:28.829Z,42.89
2022-12-09T13:20:01.174Z,42.86
2022-12-09T13:22:46.400Z,42.94
2022-12-09T13:25:21.720Z,42.88
2022-12-09T13:27:53.333Z,43.16
2022-12-09T13:30:22.169Z,43.29
2022-12-09T13:33:02.639Z,43.33
2022-12-09T13:35:44.818Z,42.99
2022-12-09T13:38:47.018Z,43.12
2022-12-09T13:41:31.343Z,43.23
2022-12-09T13:44:06.576Z,43.03
2022-12-09T13:46:33.606Z,43.59
2022-12-09T13:49:09.710Z,43.22
2022-12-09T13:51:54.561Z,43.35
2022-12-09T13:54:25.925Z,43.32
2022-12-09T13:57:14.245Z,43.34
2022-12-09T13:59:44.165Z,43.39
2022-12-09T14:02:24.349Z,43.43
2022-12-09T14:04:59.034Z,43.25
2022-12-09T14:07:41.845Z,43.17
2022-12-09T14:10:34.196Z,43.02
2022-12-09T14:13:03.272Z,43.16
2022-12-09T14:15:29.772Z,43.25
2022-12-09T14:18:02.513Z,43.19
2022-12-09T14:20:32.376Z,43.20
2022-12-09T14:23:10.844Z,43.17
2022-12-09T14:25:37.322Z,43.13
2022-12-09T14:28:09.535Z,43.16
2022-12-09T14:31:06.503Z,43.28
2022-12-09T14:33:41.098Z,43.20
2022-12-09T14:36:13.307Z,43.19
2022-12-09T14:39:25.672Z,43.10
2022-12-09T14:41:57.100Z,43.20
2022-12-09T14:44:34.761Z,43.22
2022-12-09T14:47:23.680Z,43.19
2022-12-09T14:49:50.999Z,43.11
2022-12-09T14:52:27.655Z,43.30
2022-12-09T14:54:56.422Z,43.09
2022-12-09T14:57:39.090Z,43.28
2022-12-09T15:00:07.514Z,43.04
2022-12-09T15:02:34.304Z,43.24
2022-12-09T15:05:02.083Z,42.96
2022-12-09T15:07:31.311Z,43.10
2022-12-09T15:10:00.782Z,43.23
2022-12-09T15:12:32.796Z,43.11
2022-12-09T15:15:07.029Z,43.42
2022-12-09T15:17:39.938Z,43.26
2022-12-09T15:20:07.306Z,42.99
2022-12-09T15:22:34.169Z,43.08
2022-12-09T15:25:03.083Z,43.05
2022-12-09T15:27:29.680Z,43.10
2022-12-09T15:29:56.211Z,43.09
2022-12-09T15:32:29.197Z,42.98
2022-12-09T15:34:56.035Z,42.85
2022-12-09T15:37:26.773Z,43.20
2022-12-09T15:40:08.551Z,43.07
2022-12-09T15:42:36.383Z,43.21
2022-12-09T15:45:24.257Z,43.09
2022-12-09T15:48:04.641Z,43.03
2022-12-09T15:50:39.245Z,42.83
2022-12-09T15:53:14.019Z,42.91
2022-12-09T15:55:45.143Z,43.00
2022-12-09T15:58:14.330Z,42.79
2022-12-09T16:00:43.719Z,43.00
2022-12-09T16:03:10.407Z,42.80
2022-12-09T16:05:41.814Z,43.03
2022-12-09T16:08:09.560Z,42.90
2022-12-09T16:10:49.878Z,42.86
2022-12-09T16:13:18.666Z,42.77
2022-12-09T16:15:47.442Z,42.85
2022-12-09T16:18:20.946Z,42.89
2022-12-09T16:21:16.434Z,42.82
2022-12-09T16:23:48.195Z,43.04
2022-12-09T16:26:21.481Z,43.09
2022-12-09T16:28:59.310Z,42.79
2022-12-09T16:31:26.238Z,42.82
2022-12-09T16:33:53.002Z,43.06
2022-12-09T16:36:28.259Z,42.77
2022-12-09T16:39:23.055Z,43.00
2022-12-09T16:41:52.321Z,42.93
2022-12-09T16:44:20.954Z,42.83
2022-12-09T16:46:47.479Z,42.93
2022-12-09T16:49:14.003Z,43.00
2022-12-09T16:51:40.798Z,43.07
2022-12-09T16:54:19.600Z,42.90
2022-12-09T16:56:46.886Z,42.89
2022-12-09T16:59:13.422Z,42.89
2022-12-09T17:01:41.539Z,43.02
2022-12-09T17:04:18.021Z,43.05
2022-12-09T17:06:45.151Z,42.79
2022-12-09T17:09:12.019Z,42.99
2022-12-09T17:11:38.695Z,43.14
2022-12-09T17:14:05.251Z,43.03
2022-12-09T17:16:32.774Z,42.99
2022-12-09T17:18:59.395Z,43.09
2022-12-09T17:21:26.059Z,42.76
2022-12-09T17:23:52.643Z,42.94
2022-12-09T17:26:20.216Z,42.97
2022-12-09T17:28:47.432Z,42.93
2022-12-09T17:31:16.663Z,42.93
2022-12-09T17:33:46.303Z,42.86
2022-12-09T17:36:13.651Z,42.97
2022-12-09T17:38:40.763Z,42.95
2022-12-09T17:41:09.890Z,42.71
2022-12-09T17:43:36.896Z,42.88
2022-12-09T17:46:05.074Z,42.86
2022-12-09T17:48:32.827Z,42.78
2022-12-09T17:51:00.563Z,42.79
2022-12-09T17:53:27.082Z,42.79
2022-12-09T17:55:53.622Z,42.89
2022-12-09T17:58:20.144Z,42.81
2022-12-09T18:00:47.805Z,43.06
2022-12-09T18:03:27.355Z,42.92
2022-12-09T18:06:00.104Z,43.37
2022-12-09T18:08:29.586Z,43.13
2022-12-09T18:10:56.251Z,43.34
2022-12-09T18:13:22.985Z,43.26
2022-12-09T18:15:54.087Z,42.92
2022-12-09T18:18:20.974Z,43.15
2022-12-09T18:20:47.495Z,43.24
2022-12-09T18:23:14.035Z,43.40
2022-12-09T18:25:41.278Z,43.33
2022-12-09T18:28:08.287Z,43.36
2022-12-09T18:30:35.293Z,43.54
2022-12-09T18:33:01.897Z,43.60
2022-12-09T18:35:28.443Z,43.55
2022-12-09T18:38:07.025Z,43.39
2022-12-09T18:40:59.117Z,43.40
2022-12-09T18:43:25.761Z,43.20
2022-12-09T18:45:52.311Z,43.28
2022-12-09T18:48:18.856Z,43.19
2022-12-09T18:50:45.388Z,42.88
2022-12-09T18:53:11.911Z,42.87
2022-12-09T18:55:42.363Z,42.87
2022-12-09T18:58:08.940Z,43.05
2022-12-09T19:00:36.173Z,43.03
2022-12-09T19:03:02.930Z,42.84
2022-12-09T19:05:29.499Z,43.13
2022-12-09T19:07:56.078Z,43.05
2022-12-09T19:10:22.668Z,43.01
2022-12-09T19:12:55.143Z,43.53
2022-12-09T19:15:23.134Z,43.21
2022-12-09T19:17:49.720Z,43.15
2022-12-09T19:20:16.351Z,42.94
2022-12-09T19:22:42.948Z,42.95
2022-12-09T19:25:09.496Z,42.90
2022-12-09T19:27:36.084Z,42.89
2022-12-09T19:30:04.258Z,43.17
2022-12-09T19:32:52.502Z,43.00
2022-12-09T19:35:17.453Z,42.81
2022-12-09T19:37:43.995Z,42.90
2022-12-09T19:40:11.278Z,43.00
2022-12-09T19:42:39.721Z,42.95
2022-12-09T19:45:10.614Z,43.17
2022-12-09T19:47:40.476Z,43.17
2022-12-09T19:50:07.592Z,43.28
2022-12-09T19:52:34.479Z,43.32
2022-12-09T19:55:01.018Z,43.32
2022-12-09T19:57:27.596Z,43.36
2022-12-09T19:59:54.118Z,43.45
2022-12-09T20:02:20.713Z,43.37
2022-12-09T20:04:49.264Z,43.30
2022-12-09T20:07:17.128Z,43.46
2022-12-09T20:09:43.735Z,43.18
2022-12-09T20:12:10.343Z,43.34
2022-12-09T20:14:36.890Z,43.43
2022-12-09T20:17:03.424Z,43.41
2022-12-09T20:19:31.300Z,43.44
2022-12-09T20:21:58.021Z,42.76
2022-12-09T20:24:24.567Z,43.21
2022-12-09T20:26:51.152Z,42.66
2022-12-09T20:29:17.732Z,43.15
2022-12-09T20:31:44.385Z,43.16
2022-12-09T20:34:13.348Z,43.20
2022-12-09T20:36:41.685Z,43.06
2022-12-09T20:39:12.640Z,43.08
2022-12-09T20:41:39.875Z,43.07
2022-12-09T20:44:06.495Z,43.40
2022-12-09T20:46:33.723Z,43.35
2022-12-09T20:49:00.633Z,43.20
2022-12-09T20:51:33.772Z,43.53
2022-12-09T20:54:00.687Z,43.44
2022-12-09T20:56:28.636Z,43.48
2022-12-09T20:58:56.192Z,43.58
2022-12-09T21:01:31.030Z,43.29
2022-12-09T21:03:58.676Z,43.37
2022-12-09T21:06:29.353Z,43.59
2022-12-09T21:08:57.378Z,43.39
2022-12-09T21:11:25.197Z,43.39
2022-12-09T21:13:54.264Z,43.14
2022-12-09T21:16:27.228Z,43.69
2022-12-09T21:18:55.767Z,43.62
2022-12-09T21:21:23.667Z,43.35
2022-12-09T21:23:50.659Z,43.89
2022-12-09T21:26:19.115Z,43.98
2022-12-09T21:28:46.589Z,44.26
2022-12-09T21:31:20.499Z,44.38
2022-12-09T21:33:48.217Z,44.61
2022-12-09T21:36:16.967Z,44.27
2022-12-09T21:38:43.895Z,44.41
2022-12-09T21:41:16.705Z,44.57
2022-12-09T21:43:43.840Z,44.40
2022-12-09T21:46:22.203Z,44.37
2022-12-09T21:48:52.370Z,44.50
2022-12-09T21:51:20.308Z,44.67
2022-12-09T21:53:47.323Z,44.51
2022-12-09T21:56:16.277Z,44.75
2022-12-09T21:58:44.449Z,44.57
2022-12-09T22:01:16.596Z,44.46
2022-12-09T22:03:43.674Z,44.41
2022-12-09T22:06:11.079Z,44.75
2022-12-09T22:08:39.035Z,44.66
2022-12-09T22:11:23.803Z,44.42
2022-12-09T22:13:51.215Z,44.78
2022-12-09T22:16:20.360Z,44.35
2022-12-09T22:18:47.702Z,43.87
2022-12-09T22:21:26.271Z,44.76
2022-12-09T22:23:55.058Z,44.55
2022-12-09T22:26:22.546Z,44.65
2022-12-09T22:28:49.256Z,44.66
2022-12-09T22:31:24.031Z,44.39
2022-12-09T22:33:51.989Z,44.51
2022-12-09T22:36:19.138Z,44.28
2022-12-09T22:38:45.758Z,44.56
2022-12-09T22:41:30.442Z,44.65
2022-12-09T22:43:57.363Z,44.63
2022-12-09T22:46:29.782Z,44.80
2022-12-09T22:48:57.959Z,44.61
2022-12-09T22:51:26.867Z,44.44
2022-12-09T22:53:54.658Z,44.70
2022-12-09T22:56:21.776Z,44.69
2022-12-09T22:58:48.845Z,44.75
2022-12-09T23:01:21.515Z,44.64
2022-12-09T23:03:48.012Z,44.52
2022-12-09T23:06:14.575Z,44.44
2022-12-09T23:08:42.662Z,44.04
2022-12-09T23:11:23.881Z,44.65
2022-12-09T23:13:51.087Z,44.52
2022-12-09T23:16:20.315Z,44.15
2022-12-09T23:18:47.151Z,44.31
2022-12-09T23:21:22.411Z,44.56
2022-12-09T23:23:54.630Z,44.44
2022-12-09T23:26:22.711Z,43.93
2022-12-09T23:28:51.082Z,44.40
2022-12-09T23:31:19.616Z,44.53
2022-12-09T23:33:47.348Z,44.44
2022-12-09T23:36:30.913Z,44.52
2022-12-09T23:38:57.753Z,44.45
2022-12-09T23:41:24.981Z,44.44
2022-12-09T23:43:52.220Z,44.30
2022-12-09T23:46:21.242Z,44.54
2022-12-09T23:48:49.231Z,44.52
2022-12-09T23:51:24.865Z,44.58
2022-12-09T23:53:52.631Z,44.60
2022-12-09T23:56:21.823Z,44.64
2022-12-09T23:58:48.532Z,44.39
